Time;durP1;ratioP1;P1;durP2;ratioP2;P2;SDS_P1;SDS_P2;PMS_P1;PMS_P2;Temp;Humidity;BMP_temperature;BMP_pressure;BME280_temperature;BME280_humidity;BME280_pressure;Samples;Min_cycle;Max_cycle;Signal;HPM_P1;HPM_P2
2021/04/01 00:01:20;;;;;;;26.65;13.95;;;;;;;;;;5071681;28;20035;-77
2021/04/01 00:03:45;;;;;;;27.17;13.75;;;;;;;;;;5072185;28;20028;-77
2021/04/01 00:06:11;;;;;;;30.73;12.75;;;;;;;;;;5072086;28;20048;-77
2021/04/01 00:08:37;;;;;;;22.98;12.80;;;;;;;;;;5072008;28;20040;-77
2021/04/01 00:11:02;;;;;;;28.58;12.90;;;;;;;;;;5070711;28;20074;-77
2021/04/01 00:13:27;;;;;;;25.23;12.75;;;;;;;;;;5071588;28;20442;-78
2021/04/01 00:15:56;;;;;;;26.63;12.77;;;;;;;;;;5070704;28;20472;-77
2021/04/01 00:18:21;;;;;;;31.65;14.15;;;;;;;;;;5071824;28;20020;-77
2021/04/01 00:20:46;;;;;;;24.63;13.35;;;;;;;;;;5071918;28;20419;-77
2021/04/01 00:23:12;;;;;;;27.88;13.10;;;;;;;;;;5071960;28;20423;-77
2021/04/01 00:25:37;;;;;;;24.40;12.32;;;;;;;;;;5073230;28;20476;-77
2021/04/01 00:28:02;;;;;;;31.73;14.75;;;;;;;;;;5074146;28;20024;-77
2021/04/01 00:30:28;;;;;;;24.92;13.13;;;;;;;;;;5073669;28;20016;-78
2021/04/01 00:32:53;;;;;;;32.40;13.82;;;;;;;;;;5073995;28;20459;-78
2021/04/01 00:35:18;;;;;;;30.90;13.70;;;;;;;;;;5075295;28;20408;-77
2021/04/01 00:37:43;;;;;;;26.30;13.18;;;;;;;;;;5075250;28;20012;-77
2021/04/01 00:40:09;;;;;;;23.33;12.50;;;;;;;;;;5075364;28;20016;-77
2021/04/01 00:42:35;;;;;;;23.42;12.90;;;;;;;;;;5073892;28;20490;-77
2021/04/01 00:45:05;;;;;;;30.38;12.32;;;;;;;;;;5075179;28;20067;-76
2021/04/01 00:47:31;;;;;;;35.72;13.73;;;;;;;;;;5073676;28;20069;-78
2021/04/01 00:49:57;;;;;;;36.38;13.90;;;;;;;;;;5073772;28;20547;-77
2021/04/01 00:52:24;;;;;;;25.67;12.65;;;;;;;;;;5074745;28;20158;-77
2021/04/01 00:54:49;;;;;;;25.13;13.68;;;;;;;;;;5071129;28;20024;-77
2021/04/01 00:57:14;;;;;;;34.58;13.43;;;;;;;;;;5074975;28;20033;-77
2021/04/01 00:59:39;;;;;;;30.38;13.95;;;;;;;;;;5073659;28;20370;-77
2021/04/01 01:02:04;;;;;;;31.65;13.52;;;;;;;;;;5073511;28;20044;-77
2021/04/01 01:04:31;;;;;;;31.88;14.35;;;;;;;;;;5072177;28;20024;-77
2021/04/01 01:06:56;;;;;;;30.25;13.63;;;;;;;;;;5062341;28;20043;-78
2021/04/01 01:09:21;;;;;;;33.85;14.85;;;;;;;;;;5073295;28;20021;-77
2021/04/01 01:11:46;;;;;;;38.90;15.13;;;;;;;;;;5074324;28;20419;-77
2021/04/01 01:14:12;;;;;;;36.70;14.85;;;;;;;;;;5074435;28;20476;-77
2021/04/01 01:16:37;;;;;;;37.45;15.05;;;;;;;;;;5074325;28;20023;-77
2021/04/01 01:19:03;;;;;;;37.80;15.55;;;;;;;;;;5073368;28;20020;-77
2021/04/01 01:21:29;;;;;;;31.75;14.25;;;;;;;;;;5074330;28;20399;-77
2021/04/01 01:23:54;;;;;;;35.88;15.07;;;;;;;;;;5073220;28;20031;-77
2021/04/01 01:26:20;;;;;;;36.33;16.00;;;;;;;;;;5073158;28;20020;-77
2021/04/01 01:28:46;;;;;;;36.70;15.75;;;;;;;;;;5072840;28;20517;-77
2021/04/01 01:31:12;;;;;;;27.88;14.15;;;;;;;;;;5073212;28;20024;-77
2021/04/01 01:33:43;;;;;;;34.40;15.52;;;;;;;;;;5072822;28;20021;-77
2021/04/01 01:36:09;;;;;;;39.63;14.85;;;;;;;;;;5073410;28;20020;-77
2021/04/01 01:38:34;;;;;;;27.58;14.65;;;;;;;;;;5073915;28;20036;-77
2021/04/01 01:41:00;;;;;;;36.20;15.63;;;;;;;;;;5074291;28;20379;-77
2021/04/01 01:43:25;;;;;;;32.47;14.45;;;;;;;;;;5074176;28;20020;-77
2021/04/01 01:45:51;;;;;;;38.95;15.88;;;;;;;;;;5072643;28;20024;-77
2021/04/01 01:48:17;;;;;;;31.02;14.52;;;;;;;;;;5074104;28;20435;-77
2021/04/01 01:50:42;;;;;;;32.63;16.80;;;;;;;;;;5072497;28;20039;-77
2021/04/01 01:53:08;;;;;;;33.05;15.73;;;;;;;;;;5073837;28;20023;-77
2021/04/01 01:55:34;;;;;;;57.25;17.85;;;;;;;;;;5072371;28;20043;-77
2021/04/01 01:57:59;;;;;;;42.50;16.30;;;;;;;;;;5072516;28;20447;-77
2021/04/01 02:00:32;;;;;;;31.35;15.77;;;;;;;;;;5072504;28;20376;-77
2021/04/01 02:02:58;;;;;;;34.30;15.95;;;;;;;;;;5073163;28;20472;-77
2021/04/01 02:05:24;;;;;;;31.65;15.43;;;;;;;;;;5074001;28;20047;-77
2021/04/01 02:07:50;;;;;;;32.90;15.55;;;;;;;;;;5073438;28;20127;-77
2021/04/01 02:10:20;;;;;;;33.55;15.80;;;;;;;;;;5072284;28;20104;-77
2021/04/01 02:12:45;;;;;;;39.17;16.40;;;;;;;;;;5071779;28;20448;-77
2021/04/01 02:15:11;;;;;;;28.83;15.60;;;;;;;;;;5072217;28;20078;-77
2021/04/01 02:17:37;;;;;;;36.40;15.90;;;;;;;;;;5073771;28;20016;-77
2021/04/01 02:20:02;;;;;;;32.72;14.82;;;;;;;;;;5073126;28;20034;-77
2021/04/01 02:22:27;;;;;;;32.35;15.52;;;;;;;;;;5072087;28;20039;-77
2021/04/01 02:24:52;;;;;;;35.05;15.50;;;;;;;;;;5072989;28;20450;-77
2021/04/01 02:27:18;;;;;;;33.45;15.25;;;;;;;;;;5071972;28;20025;-77
2021/04/01 02:29:43;;;;;;;29.23;14.75;;;;;;;;;;5073101;28;20373;-77
2021/04/01 02:32:08;;;;;;;28.73;14.25;;;;;;;;;;5073395;28;20069;-77
2021/04/01 02:34:33;;;;;;;28.55;14.32;;;;;;;;;;5071826;28;20495;-77
2021/04/01 02:36:59;;;;;;;25.40;14.18;;;;;;;;;;5072918;28;20023;-77
2021/04/01 02:39:24;;;;;;;29.88;14.43;;;;;;;;;;5071773;28;20110;-77
2021/04/01 02:41:49;;;;;;;31.63;14.15;;;;;;;;;;5071527;28;20012;-77
2021/04/01 02:44:14;;;;;;;31.15;14.35;;;;;;;;;;5073075;28;20345;-77
2021/04/01 02:46:40;;;;;;;33.30;14.00;;;;;;;;;;5071459;28;20059;-77
2021/04/01 02:49:05;;;;;;;32.88;13.98;;;;;;;;;;5071194;28;20052;-77
2021/04/01 02:51:30;;;;;;;31.20;13.43;;;;;;;;;;5071554;28;20429;-77
2021/04/01 02:53:55;;;;;;;27.15;13.63;;;;;;;;;;5072345;28;20020;-77
2021/04/01 02:56:20;;;;;;;26.55;13.65;;;;;;;;;;5071311;28;20476;-77
2021/04/01 02:58:46;;;;;;;33.75;14.57;;;;;;;;;;5071185;28;20111;-77
2021/04/01 03:01:11;;;;;;;24.50;12.65;;;;;;;;;;5072669;28;20025;-77
2021/04/01 03:03:40;;;;;;;28.77;13.50;;;;;;;;;;5071142;28;20020;-77
2021/04/01 03:06:05;;;;;;;30.70;13.52;;;;;;;;;;5072387;28;20021;-77
2021/04/01 03:08:30;;;;;;;24.65;13.48;;;;;;;;;;5072596;28;20135;-77
2021/04/01 03:10:56;;;;;;;31.48;13.85;;;;;;;;;;5072324;28;20032;-77
2021/04/01 03:13:21;;;;;;;30.23;13.25;;;;;;;;;;5071186;28;20408;-77
2021/04/01 03:15:49;;;;;;;26.45;13.25;;;;;;;;;;5072515;28;20024;-77
2021/04/01 03:18:14;;;;;;;31.13;13.50;;;;;;;;;;5071028;28;20467;-77
2021/04/01 03:20:39;;;;;;;38.35;14.57;;;;;;;;;;5072411;28;20039;-77
2021/04/01 03:23:04;;;;;;;32.95;15.23;;;;;;;;;;5071554;28;20021;-77
2021/04/01 03:25:29;;;;;;;32.67;14.98;;;;;;;;;;5071188;28;20391;-77
2021/04/01 03:27:55;;;;;;;35.42;14.07;;;;;;;;;;5070872;28;20039;-77
2021/04/01 03:30:20;;;;;;;28.95;14.50;;;;;;;;;;5072483;28;20043;-77
2021/04/01 03:32:46;;;;;;;31.63;14.70;;;;;;;;;;5072129;28;20468;-77
2021/04/01 03:35:13;;;;;;;32.30;14.80;;;;;;;;;;5072303;28;20009;-77
2021/04/01 03:37:39;;;;;;;29.42;13.38;;;;;;;;;;5072141;28;20093;-77
2021/04/01 03:40:05;;;;;;;26.55;14.13;;;;;;;;;;5072153;28;20063;-78
2021/04/01 03:42:31;;;;;;;35.38;14.23;;;;;;;;;;5072219;28;20028;-77
2021/04/01 03:44:56;;;;;;;25.92;13.98;;;;;;;;;;5072155;28;20016;-77
2021/04/01 03:47:21;;;;;;;26.25;13.27;;;;;;;;;;5071048;28;20050;-77
2021/04/01 03:49:47;;;;;;;29.23;13.30;;;;;;;;;;5072375;28;20541;-77
2021/04/01 03:52:12;;;;;;;28.58;12.88;;;;;;;;;;5070679;28;20012;-77
2021/04/01 03:54:37;;;;;;;27.05;13.73;;;;;;;;;;5072254;28;20047;-77
2021/04/01 03:57:03;;;;;;;30.15;13.50;;;;;;;;;;5072268;28;20064;-77
2021/04/01 03:59:58;;;;;;;25.27;13.80;;;;;;;;;;5070912;28;20115;-77
2021/04/01 04:15:15;;;;;;;28.25;13.30;;;;;;;;;;5076131;28;20028;-77
2021/04/01 04:17:40;;;;;;;29.55;14.20;;;;;;;;;;5074220;28;20025;-78
2021/04/01 04:20:06;;;;;;;29.92;15.45;;;;;;;;;;5075170;28;20308;-77
2021/04/01 04:22:31;;;;;;;32.15;14.45;;;;;;;;;;5074055;28;20025;-77
2021/04/01 04:24:57;;;;;;;37.80;14.93;;;;;;;;;;5075430;28;20024;-77
2021/04/01 04:29:59;;;;;;;41.25;16.48;;;;;;;;;;5075552;28;20074;-77
2021/04/01 04:32:25;;;;;;;40.58;17.52;;;;;;;;;;5074449;28;20051;-77
2021/04/01 04:34:50;;;;;;;36.35;16.17;;;;;;;;;;5074022;28;20024;-77
2021/04/01 04:37:15;;;;;;;38.55;16.50;;;;;;;;;;5075456;28;20111;-77
2021/04/01 04:39:41;;;;;;;36.13;17.25;;;;;;;;;;5075192;28;20016;-77
2021/04/01 04:42:06;;;;;;;37.72;15.90;;;;;;;;;;5075249;28;20468;-77
2021/04/01 04:44:33;;;;;;;38.25;16.13;;;;;;;;;;5075231;28;20017;-77
2021/04/01 04:46:58;;;;;;;36.30;17.73;;;;;;;;;;5073903;28;20012;-77
2021/04/01 04:49:23;;;;;;;38.40;16.50;;;;;;;;;;5075338;28;20016;-77
2021/04/01 04:51:48;;;;;;;34.90;16.45;;;;;;;;;;5075058;28;20460;-77
2021/04/01 04:54:13;;;;;;;32.67;16.45;;;;;;;;;;5075033;28;20039;-78
2021/04/01 04:56:39;;;;;;;33.95;16.27;;;;;;;;;;5073730;28;20447;-77
2021/04/01 04:59:11;;;;;;;33.17;16.25;;;;;;;;;;5073652;28;20009;-77
2021/04/01 05:07:04;;;;;;;39.08;17.70;;;;;;;;;;5075248;28;20070;-77
2021/04/01 05:09:29;;;;;;;37.50;16.77;;;;;;;;;;5073402;28;20367;-77
2021/04/01 05:11:54;;;;;;;34.58;16.08;;;;;;;;;;5074294;28;20021;-77
2021/04/01 05:14:20;;;;;;;36.40;16.10;;;;;;;;;;5074506;28;20020;-77
2021/04/01 05:16:45;;;;;;;38.75;18.00;;;;;;;;;;5074273;28;20017;-77
2021/04/01 05:19:12;;;;;;;33.88;16.42;;;;;;;;;;5073309;28;20345;-77
2021/04/01 05:24:24;;;;;;;36.25;17.33;;;;;;;;;;5074619;28;20554;-77
2021/04/01 05:29:22;;;;;;;40.88;17.50;;;;;;;;;;5074615;28;20047;-77
2021/04/01 05:31:49;;;;;;;35.60;17.02;;;;;;;;;;5073017;28;20045;-77
2021/04/01 05:34:14;;;;;;;33.75;15.75;;;;;;;;;;5072643;28;20027;-77
2021/04/01 05:36:41;;;;;;;40.78;16.70;;;;;;;;;;5074033;28;20443;-77
2021/04/01 05:39:11;;;;;;;34.25;15.85;;;;;;;;;;5073002;28;20078;-77
2021/04/01 05:41:37;;;;;;;32.08;16.30;;;;;;;;;;5074046;28;20013;-77
2021/04/01 05:46:35;;;;;;;34.75;16.95;;;;;;;;;;5074349;28;20032;-77
2021/04/01 05:52:28;;;;;;;34.90;17.15;;;;;;;;;;5072683;28;20028;-77
2021/04/01 06:05:44;;;;;;;32.78;16.70;;;;;;;;;;5073330;28;20101;-77
2021/04/01 06:08:17;;;;;;;32.17;16.50;;;;;;;;;;5073246;28;20141;-77
2021/04/01 06:10:43;;;;;;;40.25;17.98;;;;;;;;;;5066031;28;20029;-77
2021/04/01 06:13:13;;;;;;;35.58;17.05;;;;;;;;;;5066961;28;20104;-77
2021/04/01 06:15:38;;;;;;;28.63;15.02;;;;;;;;;;5064473;28;20024;-77
2021/04/01 06:18:07;;;;;;;33.78;15.35;;;;;;;;;;5071620;28;20024;-77
2021/04/01 06:20:34;;;;;;;45.92;18.02;;;;;;;;;;5072320;28;20024;-77
2021/04/01 06:23:01;;;;;;;37.60;17.85;;;;;;;;;;5070907;28;20038;-77
2021/04/01 06:25:27;;;;;;;35.40;17.23;;;;;;;;;;5071063;28;20038;-77
2021/04/01 06:27:55;;;;;;;34.75;17.00;;;;;;;;;;5065517;28;20090;-77
2021/04/01 06:30:29;;;;;;;35.33;17.65;;;;;;;;;;5070219;28;20442;-77
2021/04/01 06:33:03;;;;;;;36.65;18.02;;;;;;;;;;5070732;28;20024;-77
2021/04/01 06:35:38;;;;;;;39.08;18.30;;;;;;;;;;5072862;28;20025;-77
2021/04/01 06:40:36;;;;;;;38.17;18.65;;;;;;;;;;5073118;28;20017;-77
2021/04/01 06:43:08;;;;;;;42.25;18.75;;;;;;;;;;5071262;28;20384;-77
2021/04/01 06:45:33;;;;;;;41.38;18.77;;;;;;;;;;5072832;28;20012;-77
2021/04/01 06:47:58;;;;;;;40.97;18.48;;;;;;;;;;5071588;28;20045;-77
2021/04/01 06:50:29;;;;;;;45.05;19.85;;;;;;;;;;5071455;28;20375;-77
2021/04/01 06:53:15;;;;;;;44.03;19.77;;;;;;;;;;5071259;28;20085;-77
2021/04/01 06:55:47;;;;;;;45.78;20.00;;;;;;;;;;5072610;28;20028;-77
2021/04/01 06:58:29;;;;;;;41.05;20.00;;;;;;;;;;5071557;28;20012;-77
2021/04/01 07:01:18;;;;;;;43.03;20.45;;;;;;;;;;5072749;28;20017;-77
2021/04/01 07:03:48;;;;;;;50.38;21.50;;;;;;;;;;5066982;28;20024;-77
2021/04/01 07:06:30;;;;;;;51.42;20.17;;;;;;;;;;5072102;28;20473;-77
2021/04/01 07:09:03;;;;;;;48.65;19.33;;;;;;;;;;5063408;28;20059;-77
2021/04/01 07:11:39;;;;;;;42.85;20.40;;;;;;;;;;5072183;28;20027;-78
2021/04/01 07:14:19;;;;;;;45.00;21.77;;;;;;;;;;5071402;28;20129;-77
2021/04/01 07:47:15;;;;;;;46.47;20.70;;;;;;;;;;5074882;28;20035;-77
2021/04/01 07:49:44;;;;;;;48.35;22.65;;;;;;;;;;5074794;28;20024;-77
2021/04/01 07:52:10;;;;;;;49.00;22.08;;;;;;;;;;5063129;28;20428;-77
2021/04/01 07:54:42;;;;;;;61.38;25.50;;;;;;;;;;5074447;28;20017;-77
2021/04/01 07:57:47;;;;;;;61.95;25.33;;;;;;;;;;5073116;28;20484;-77
2021/04/01 08:05:39;;;;;;;62.00;25.42;;;;;;;;;;5075109;28;20380;-78
2021/04/01 08:08:09;;;;;;;69.82;28.88;;;;;;;;;;5074101;28;20031;-77
2021/04/01 08:10:40;;;;;;;81.63;30.55;;;;;;;;;;5075871;28;20078;-77
2021/04/01 08:13:08;;;;;;;71.70;25.50;;;;;;;;;;5075531;28;20021;-77
2021/04/01 08:15:36;;;;;;;63.28;25.35;;;;;;;;;;5075807;28;20468;-77
2021/04/01 08:18:16;;;;;;;63.20;24.48;;;;;;;;;;5074156;28;20012;-77
2021/04/01 08:20:43;;;;;;;70.45;28.23;;;;;;;;;;5075771;28;20021;-77
2021/04/01 08:23:11;;;;;;;75.15;29.60;;;;;;;;;;5075490;28;20054;-77
2021/04/01 08:25:48;;;;;;;68.93;27.88;;;;;;;;;;5071416;28;20021;-77
2021/04/01 08:28:29;;;;;;;65.70;25.80;;;;;;;;;;5073678;28;20037;-77
2021/04/01 08:36:21;;;;;;;76.38;29.23;;;;;;;;;;5075528;28;20443;-77
2021/04/01 08:38:47;;;;;;;70.03;28.23;;;;;;;;;;5073829;28;20008;-77
2021/04/01 08:41:21;;;;;;;77.18;27.55;;;;;;;;;;5074020;28;20021;-77
2021/04/01 08:43:46;;;;;;;79.88;28.90;;;;;;;;;;5073895;28;20016;-76
2021/04/01 08:46:23;;;;;;;77.80;28.80;;;;;;;;;;5074162;28;20021;-77
2021/04/01 08:48:57;;;;;;;74.53;26.00;;;;;;;;;;5075076;28;20016;-78
2021/04/01 08:51:41;;;;;;;75.13;24.65;;;;;;;;;;5074858;28;20024;-78
2021/04/01 08:54:22;;;;;;;70.55;26.10;;;;;;;;;;5069425;28;20046;-77
2021/04/01 08:57:05;;;;;;;64.15;22.77;;;;;;;;;;5073670;28;20099;-77
2021/04/01 08:59:42;;;;;;;82.00;29.15;;;;;;;;;;5074775;28;20021;-77
2021/04/01 09:02:11;;;;;;;78.55;26.15;;;;;;;;;;5073535;28;20012;-77
2021/04/01 09:04:36;;;;;;;67.65;25.95;;;;;;;;;;5073403;28;20111;-78
2021/04/01 09:07:13;;;;;;;69.63;26.40;;;;;;;;;;5074866;28;20100;-78
2021/04/01 09:09:39;;;;;;;77.10;27.25;;;;;;;;;;5073380;28;20154;-78
2021/04/01 09:12:19;;;;;;;75.28;27.13;;;;;;;;;;5074631;28;20097;-78
2021/04/01 09:14:49;;;;;;;73.07;24.30;;;;;;;;;;5072816;28;20025;-79
2021/04/01 09:17:16;;;;;;;79.90;26.80;;;;;;;;;;5068722;28;20388;-79
2021/04/01 09:19:42;;;;;;;74.32;26.50;;;;;;;;;;5074456;28;20468;-79
2021/04/01 09:22:17;;;;;;;77.57;26.45;;;;;;;;;;5073240;28;20016;-79
2021/04/01 09:24:43;;;;;;;61.75;22.70;;;;;;;;;;5072342;28;20036;-79
2021/04/01 09:27:12;;;;;;;56.50;20.67;;;;;;;;;;5061234;28;20016;-79
2021/04/01 09:29:42;;;;;;;55.65;21.40;;;;;;;;;;5070577;28;20103;-79
2021/04/01 09:32:08;;;;;;;60.28;20.50;;;;;;;;;;5072729;28;20024;-79
2021/04/01 09:34:35;;;;;;;58.88;20.60;;;;;;;;;;5074195;28;20416;-79
2021/04/01 09:37:11;;;;;;;54.03;19.85;;;;;;;;;;5072389;28;20036;-78
2021/04/01 09:39:36;;;;;;;54.13;20.30;;;;;;;;;;5074256;28;20016;-79
2021/04/01 09:42:03;;;;;;;58.10;20.80;;;;;;;;;;5073593;28;20399;-79
2021/04/01 09:44:28;;;;;;;54.47;20.00;;;;;;;;;;5073908;28;20048;-79
2021/04/01 09:47:15;;;;;;;54.67;20.42;;;;;;;;;;5073778;28;20514;-79
2021/04/01 09:50:00;;;;;;;40.78;17.40;;;;;;;;;;5073884;28;20020;-79
2021/04/01 09:52:27;;;;;;;52.65;19.55;;;;;;;;;;5067569;28;20039;-79
2021/04/01 09:54:57;;;;;;;45.85;16.17;;;;;;;;;;5073750;28;20384;-79
2021/04/01 09:57:26;;;;;;;43.35;15.90;;;;;;;;;;5072207;28;20103;-78
2021/04/01 09:59:53;;;;;;;44.60;16.67;;;;;;;;;;5072530;28;20048;-79
2021/04/01 10:02:29;;;;;;;46.70;15.68;;;;;;;;;;5072206;28;20103;-79
2021/04/01 10:05:02;;;;;;;45.65;17.23;;;;;;;;;;5071249;28;20025;-79
2021/04/01 10:07:29;;;;;;;45.00;16.50;;;;;;;;;;5073734;28;20021;-79
2021/04/01 10:09:57;;;;;;;44.40;16.60;;;;;;;;;;5072126;28;20039;-79
2021/04/01 10:12:33;;;;;;;45.42;16.90;;;;;;;;;;5073481;28;20492;-78
2021/04/01 10:14:58;;;;;;;41.08;17.40;;;;;;;;;;5072942;28;20033;-79
2021/04/01 10:17:24;;;;;;;46.72;17.77;;;;;;;;;;5073536;28;20070;-79
2021/04/01 10:19:56;;;;;;;45.63;17.30;;;;;;;;;;5071640;28;20032;-79
2021/04/01 10:22:23;;;;;;;52.45;18.88;;;;;;;;;;5073285;28;20020;-79
2021/04/01 10:25:01;;;;;;;36.60;13.60;;;;;;;;;;5073004;28;20529;-79
2021/04/01 10:27:32;;;;;;;48.80;17.08;;;;;;;;;;5073351;28;20104;-79
2021/04/01 10:29:59;;;;;;;44.83;16.63;;;;;;;;;;5072904;28;20017;-79
2021/04/01 10:32:30;;;;;;;47.72;19.23;;;;;;;;;;5062320;28;20020;-79
2021/04/01 10:34:56;;;;;;;54.40;19.40;;;;;;;;;;5072396;28;20040;-79
2021/04/01 10:37:22;;;;;;;52.40;19.15;;;;;;;;;;5072750;28;20049;-79
2021/04/01 10:39:48;;;;;;;48.75;18.60;;;;;;;;;;5071361;28;20480;-79
2021/04/01 10:42:39;;;;;;;59.17;22.02;;;;;;;;;;5071772;28;20025;-79
2021/04/01 10:45:07;;;;;;;45.90;17.05;;;;;;;;;;5071521;28;20028;-79
2021/04/01 10:47:52;;;;;;;52.78;17.80;;;;;;;;;;5060805;28;20036;-79
2021/04/01 10:50:18;;;;;;;52.05;18.98;;;;;;;;;;5050141;28;20495;-79
2021/04/01 10:52:43;;;;;;;55.63;19.92;;;;;;;;;;5072834;28;20024;-79
2021/04/01 10:55:09;;;;;;;62.55;21.15;;;;;;;;;;5072492;28;20028;-79
2021/04/01 10:57:34;;;;;;;55.85;22.15;;;;;;;;;;5071469;28;20020;-79
2021/04/01 11:00:01;;;;;;;69.38;23.10;;;;;;;;;;5072546;28;20114;-79
2021/04/01 11:02:36;;;;;;;63.17;22.92;;;;;;;;;;5072381;28;20029;-79
2021/04/01 11:05:15;;;;;;;68.22;24.15;;;;;;;;;;5072083;28;20025;-79
2021/04/01 11:07:45;;;;;;;69.00;25.50;;;;;;;;;;5071278;28;20471;-79
2021/04/01 11:10:17;;;;;;;68.47;23.95;;;;;;;;;;5071921;28;20028;-79
2021/04/01 11:12:44;;;;;;;61.33;24.30;;;;;;;;;;5072422;28;20035;-79
2021/04/01 11:15:10;;;;;;;71.15;25.63;;;;;;;;;;5070772;28;20488;-79
2021/04/01 11:17:37;;;;;;;77.57;29.23;;;;;;;;;;5071345;28;20036;-79
2021/04/01 11:20:03;;;;;;;79.97;29.05;;;;;;;;;;5072212;28;20471;-79
2021/04/01 11:22:28;;;;;;;75.18;26.88;;;;;;;;;;5070747;28;20024;-79
2021/04/01 11:24:54;;;;;;;81.50;27.73;;;;;;;;;;5071837;28;20116;-79
2021/04/01 11:27:20;;;;;;;84.40;32.45;;;;;;;;;;5070923;28;20028;-79
2021/04/01 11:29:52;;;;;;;82.45;28.52;;;;;;;;;;5061092;28;20025;-79
2021/04/01 11:32:22;;;;;;;83.05;28.08;;;;;;;;;;5071134;28;20099;-79
2021/04/01 11:34:48;;;;;;;84.32;33.90;;;;;;;;;;5070154;28;20024;-79
2021/04/01 11:37:18;;;;;;;82.95;32.25;;;;;;;;;;5072285;28;20430;-79
2021/04/01 11:39:43;;;;;;;93.00;34.72;;;;;;;;;;5072216;28;20025;-79
2021/04/01 11:42:16;;;;;;;84.22;29.70;;;;;;;;;;5072222;28;20074;-79
2021/04/01 11:44:42;;;;;;;85.85;32.70;;;;;;;;;;5071845;28;20028;-79
2021/04/01 11:47:18;;;;;;;91.45;32.97;;;;;;;;;;5071806;28;20032;-79
2021/04/01 11:49:48;;;;;;;85.65;34.83;;;;;;;;;;5071939;28;20036;-79
2021/04/01 11:52:14;;;;;;;78.90;30.13;;;;;;;;;;5066439;28;20523;-79
2021/04/01 11:54:40;;;;;;;83.88;27.13;;;;;;;;;;5063889;28;20111;-79
2021/04/01 11:57:34;;;;;;;82.47;28.35;;;;;;;;;;5071731;28;20064;-79
2021/04/01 12:00:08;;;;;;;77.25;28.17;;;;;;;;;;5065650;28;20567;-79
2021/04/01 12:02:43;;;;;;;75.10;25.52;;;;;;;;;;5070169;28;20013;-79
2021/04/01 12:05:09;;;;;;;71.82;25.50;;;;;;;;;;5070442;28;20021;-79
2021/04/01 12:07:34;;;;;;;74.82;27.98;;;;;;;;;;5070698;28;20027;-79
2021/04/01 12:10:00;;;;;;;74.10;26.60;;;;;;;;;;5072167;28;20033;-79
2021/04/01 12:12:29;;;;;;;86.20;32.90;;;;;;;;;;5057573;28;20021;-79
2021/04/01 12:14:54;;;;;;;84.20;33.85;;;;;;;;;;5068812;28;20091;-78
2021/04/01 12:17:28;;;;;;;81.95;32.35;;;;;;;;;;5071813;28;20100;-78
2021/04/01 12:19:53;;;;;;;76.70;27.63;;;;;;;;;;5070625;28;20062;-78
2021/04/01 12:22:18;;;;;;;83.18;31.33;;;;;;;;;;5074587;28;20523;-78
2021/04/01 12:24:44;;;;;;;80.32;29.20;;;;;;;;;;5075119;28;20035;-78
2021/04/01 12:27:09;;;;;;;92.22;31.85;;;;;;;;;;5075378;28;20364;-78
2021/04/01 12:29:48;;;;;;;97.07;38.08;;;;;;;;;;5074066;28;20380;-78
2021/04/01 12:32:23;;;;;;;87.90;31.13;;;;;;;;;;5075804;28;20031;-78
2021/04/01 12:34:49;;;;;;;89.90;37.40;;;;;;;;;;5075297;28;20020;-78
2021/04/01 12:37:14;;;;;;;87.03;33.45;;;;;;;;;;5075601;28;20028;-78
2021/04/01 12:39:40;;;;;;;76.75;29.70;;;;;;;;;;5075193;28;20387;-78
2021/04/01 12:42:05;;;;;;;78.68;32.53;;;;;;;;;;5075262;28;20032;-78
2021/04/01 12:44:38;;;;;;;101.28;40.83;;;;;;;;;;5075473;28;20028;-78
2021/04/01 12:47:04;;;;;;;104.75;41.70;;;;;;;;;;5073879;28;20115;-78
2021/04/01 12:49:33;;;;;;;87.88;34.95;;;;;;;;;;5075182;28;20130;-78
2021/04/01 12:52:01;;;;;;;95.90;41.50;;;;;;;;;;5073726;28;20025;-78
2021/04/01 12:54:29;;;;;;;103.15;44.85;;;;;;;;;;5073613;28;20027;-78
2021/04/01 12:57:01;;;;;;;107.43;49.55;;;;;;;;;;5074922;28;20013;-78
2021/04/01 12:59:26;;;;;;;;;;;;;;;;;;5074547;28;20086;-78
2021/04/01 13:01:58;;;;;;;114.53;53.22;;;;;;;;;;5075025;28;20311;-78
2021/04/01 13:04:25;;;;;;;106.18;51.88;;;;;;;;;;5074838;28;20133;-78
2021/04/01 13:11:41;;;;;;;111.80;45.42;;;;;;;;;;5074897;28;20031;-78
2021/04/01 13:14:06;;;;;;;117.30;53.42;;;;;;;;;;5074738;28;20035;-78
2021/04/01 13:16:31;;;;;;;121.15;49.88;;;;;;;;;;5074486;28;20499;-78
2021/04/01 13:18:57;;;;;;;100.88;42.80;;;;;;;;;;5073325;28;20027;-78
2021/04/01 13:24:07;;;;;;;95.47;41.05;;;;;;;;;;5074936;28;20027;-78
2021/04/01 13:26:33;;;;;;;96.57;39.80;;;;;;;;;;5069984;28;20024;-78
2021/04/01 13:28:59;;;;;;;96.53;41.90;;;;;;;;;;5055295;28;20372;-78
2021/04/01 13:31:36;;;;;;;96.53;41.67;;;;;;;;;;5069686;28;20020;-78
2021/04/01 13:36:53;;;;;;;95.07;40.72;;;;;;;;;;5074416;28;20020;-78
2021/04/01 13:39:22;;;;;;;92.10;41.47;;;;;;;;;;5074074;28;20023;-78
2021/04/01 13:42:04;;;;;;;104.28;42.63;;;;;;;;;;5074164;28;20017;-78
2021/04/01 13:44:33;;;;;;;89.43;41.33;;;;;;;;;;5074065;28;20016;-78
2021/04/01 13:46:58;;;;;;;102.68;40.83;;;;;;;;;;5071382;28;20028;-78
2021/04/01 13:49:26;;;;;;;88.68;37.85;;;;;;;;;;5065963;28;20395;-78
2021/04/01 13:51:56;;;;;;;90.10;41.13;;;;;;;;;;5072430;28;20036;-78
2021/04/01 13:57:23;;;;;;;72.20;31.73;;;;;;;;;;5069497;28;20412;-78
2021/04/01 14:10:51;;;;;;;73.45;32.20;;;;;;;;;;5073552;28;20027;-79
2021/04/01 14:13:16;;;;;;;68.63;30.73;;;;;;;;;;5073256;28;20336;-79
2021/04/01 14:15:42;;;;;;;71.85;31.00;;;;;;;;;;5073623;28;20020;-79
2021/04/01 14:18:08;;;;;;;66.75;25.35;;;;;;;;;;5073262;28;20008;-79
2021/04/01 14:20:34;;;;;;;39.97;15.73;;;;;;;;;;5073050;28;20032;-79
2021/04/01 14:22:59;;;;;;;43.78;18.33;;;;;;;;;;5073386;28;20055;-79
2021/04/01 14:25:34;;;;;;;35.88;13.32;;;;;;;;;;5072321;28;20074;-79
2021/04/01 14:28:03;;;;;;;39.20;13.35;;;;;;;;;;5073698;28;20036;-79
2021/04/01 14:30:30;;;;;;;34.63;14.77;;;;;;;;;;5071849;28;20040;-79
2021/04/01 14:32:55;;;;;;;31.42;13.00;;;;;;;;;;5072777;28;20024;-79
2021/04/01 14:35:20;;;;;;;27.48;10.70;;;;;;;;;;5071986;28;20032;-79
2021/04/01 14:37:46;;;;;;;30.58;9.77;;;;;;;;;;5073616;28;20081;-79
2021/04/01 14:40:11;;;;;;;25.00;9.35;;;;;;;;;;5072028;28;20452;-79
2021/04/01 14:42:48;;;;;;;16.85;7.22;;;;;;;;;;5064051;28;20024;-79
2021/04/01 14:45:14;;;;;;;16.50;7.07;;;;;;;;;;5069696;28;20137;-79
2021/04/01 14:47:39;;;;;;;24.15;8.00;;;;;;;;;;5071916;28;20024;-79
2021/04/01 14:50:08;;;;;;;21.17;7.40;;;;;;;;;;5073095;28;20013;-80
2021/04/01 14:52:35;;;;;;;27.17;8.05;;;;;;;;;;5071873;28;20032;-80
2021/04/01 14:55:01;;;;;;;17.98;6.78;;;;;;;;;;5073310;28;20029;-80
2021/04/01 14:57:27;;;;;;;16.45;6.00;;;;;;;;;;5058699;28;20028;-79
2021/04/01 14:59:53;;;;;;;16.92;5.80;;;;;;;;;;5073480;28;20021;-79
2021/04/01 15:02:18;;;;;;;18.02;6.30;;;;;;;;;;5072972;28;20461;-79
2021/04/01 15:04:44;;;;;;;25.08;6.72;;;;;;;;;;5073069;28;20070;-80
2021/04/01 15:07:10;;;;;;;20.10;5.53;;;;;;;;;;5072959;28;20074;-80
2021/04/01 15:09:35;;;;;;;19.45;5.47;;;;;;;;;;5071977;28;20107;-80
2021/04/01 15:12:00;;;;;;;15.65;5.95;;;;;;;;;;5073186;28;20079;-79
2021/04/01 15:14:27;;;;;;;21.70;6.25;;;;;;;;;;5074066;28;20506;-80
2021/04/01 15:16:52;;;;;;;18.98;6.05;;;;;;;;;;5072205;28;20070;-80
2021/04/01 15:19:18;;;;;;;20.73;4.75;;;;;;;;;;5072061;28;20013;-80
2021/04/01 15:21:43;;;;;;;19.15;5.07;;;;;;;;;;5073854;28;20024;-80
2021/04/01 15:24:11;;;;;;;15.65;5.40;;;;;;;;;;5073821;28;20506;-79
2021/04/01 15:26:36;;;;;;;20.02;5.50;;;;;;;;;;5072937;28;20472;-80
2021/04/01 15:29:02;;;;;;;20.00;4.53;;;;;;;;;;5071028;28;20032;-79
2021/04/01 15:31:27;;;;;;;19.35;3.40;;;;;;;;;;5055618;28;20066;-78
2021/04/01 15:33:53;;;;;;;12.48;3.25;;;;;;;;;;5071206;28;20020;-79
2021/04/01 15:36:18;;;;;;;14.38;3.97;;;;;;;;;;5071143;28;20027;-79
2021/04/01 15:38:45;;;;;;;18.77;4.13;;;;;;;;;;5071992;28;20035;-79
2021/04/01 15:41:10;;;;;;;12.93;3.70;;;;;;;;;;5070990;28;20107;-79
2021/04/01 15:43:35;;;;;;;25.30;3.28;;;;;;;;;;5070908;28;20420;-79
2021/04/01 15:46:01;;;;;;;19.23;3.45;;;;;;;;;;5072348;28;20035;-78
2021/04/01 15:48:26;;;;;;;20.95;3.80;;;;;;;;;;5072350;28;20147;-79
2021/04/01 15:50:51;;;;;;;14.25;3.10;;;;;;;;;;5072116;28;20024;-78
2021/04/01 15:53:17;;;;;;;16.67;3.55;;;;;;;;;;5072208;28;20509;-79
2021/04/01 15:55:43;;;;;;;17.58;3.15;;;;;;;;;;5073937;28;20013;-79
2021/04/01 15:58:08;;;;;;;7.43;2.30;;;;;;;;;;5073374;28;20051;-79
2021/04/01 16:00:34;;;;;;;17.30;3.80;;;;;;;;;;5075958;28;20019;-78
2021/04/01 16:02:59;;;;;;;18.90;3.60;;;;;;;;;;5076172;28;20379;-79
2021/04/01 16:05:24;;;;;;;15.90;4.07;;;;;;;;;;5076067;28;20026;-79
2021/04/01 16:07:51;;;;;;;16.63;3.80;;;;;;;;;;5075723;28;20082;-79
2021/04/01 16:10:16;;;;;;;15.88;3.50;;;;;;;;;;5073283;28;20052;-79
2021/04/01 16:12:42;;;;;;;20.73;4.05;;;;;;;;;;5073995;28;20055;-78
2021/04/01 16:15:07;;;;;;;19.52;3.95;;;;;;;;;;5069119;28;20027;-79